sensor_id;sensor_type;location;lat;lon;timestamp;temperature;humidity
18998;DHT22;9632;51.018;4.284;2023-04-03T00:01:08;5.50;99.90
18998;DHT22;9632;51.018;4.284;2023-04-03T00:03:33;5.50;99.90
18998;DHT22;9632;51.018;4.284;2023-04-03T00:06:00;5.60;99.90
18998;DHT22;9632;51.018;4.284;2023-04-03T00:08:25;5.60;99.90
18998;DHT22;9632;51.018;4.284;2023-04-03T00:10:51;5.50;99.90
18998;DHT22;9632;51.018;4.284;2023-04-03T00:13:17;5.50;99.90
18998;DHT22;9632;51.018;4.284;2023-04-03T00:15:43;5.50;99.90
18998;DHT22;9632;51.018;4.284;2023-04-03T00:18:09;5.50;99.90
18998;DHT22;9632;51.018;4.284;2023-04-03T00:20:34;5.50;99.90
18998;DHT22;9632;51.018;4.284;2023-04-03T00:23:01;5.60;99.90
18998;DHT22;9632;51.018;4.284;2023-04-03T00:25:27;5.60;99.90
18998;DHT22;9632;51.018;4.284;2023-04-03T00:27:52;5.50;99.90
18998;DHT22;9632;51.018;4.284;2023-04-03T00:30:20;5.50;99.90
18998;DHT22;9632;51.018;4.284;2023-04-03T00:32:48;5.50;99.90
18998;DHT22;9632;51.018;4.284;2023-04-03T00:35:14;5.60;99.90
18998;DHT22;9632;51.018;4.284;2023-04-03T00:37:41;5.50;99.90
18998;DHT22;9632;51.018;4.284;2023-04-03T00:40:08;5.50;99.90
18998;DHT22;9632;51.018;4.284;2023-04-03T00:42:36;5.50;99.90
18998;DHT22;9632;51.018;4.284;2023-04-03T00:47:28;5.50;99.90
18998;DHT22;9632;51.018;4.284;2023-04-03T00:49:55;5.50;99.90
18998;DHT22;9632;51.018;4.284;2023-04-03T00:52:23;5.50;99.90
18998;DHT22;9632;51.018;4.284;2023-04-03T00:54:52;5.50;99.90
18998;DHT22;9632;51.018;4.284;2023-04-03T00:57:21;5.50;99.90
18998;DHT22;9632;51.018;4.284;2023-04-03T00:59:52;5.50;99.90
18998;DHT22;9632;51.018;4.284;2023-04-03T01:02:20;5.50;99.90
18998;DHT22;9632;51.018;4.284;2023-04-03T01:04:45;5.50;99.90
18998;DHT22;9632;51.018;4.284;2023-04-03T01:07:17;5.50;99.90
18998;DHT22;9632;51.018;4.284;2023-04-03T01:09:44;5.40;99.90
18998;DHT22;9632;51.018;4.284;2023-04-03T01:14:44;5.40;99.90
18998;DHT22;9632;51.018;4.284;2023-04-03T01:17:36;5.50;99.90
18998;DHT22;9632;51.018;4.284;2023-04-03T01:22:55;5.40;99.90
18998;DHT22;9632;51.018;4.284;2023-04-03T01:25:22;5.40;99.90
18998;DHT22;9632;51.018;4.284;2023-04-03T01:27:48;5.40;99.90
18998;DHT22;9632;51.018;4.284;2023-04-03T01:30:17;5.40;99.90
18998;DHT22;9632;51.018;4.284;2023-04-03T01:32:43;5.40;99.90
18998;DHT22;9632;51.018;4.284;2023-04-03T01:35:09;5.30;99.90
18998;DHT22;9632;51.018;4.284;2023-04-03T01:37:35;5.30;99.90
18998;DHT22;9632;51.018;4.284;2023-04-03T01:40:01;5.30;99.90
18998;DHT22;9632;51.018;4.284;2023-04-03T01:42:27;5.30;99.90
18998;DHT22;9632;51.018;4.284;2023-04-03T01:44:53;5.30;99.90
18998;DHT22;9632;51.018;4.284;2023-04-03T01:47:18;5.30;99.90
18998;DHT22;9632;51.018;4.284;2023-04-03T01:49:44;5.30;99.90
18998;DHT22;9632;51.018;4.284;2023-04-03T01:52:10;5.30;99.90
18998;DHT22;9632;51.018;4.284;2023-04-03T01:54:36;5.20;99.90
18998;DHT22;9632;51.018;4.284;2023-04-03T01:57:02;5.20;99.90
18998;DHT22;9632;51.018;4.284;2023-04-03T01:59:27;5.10;99.90
18998;DHT22;9632;51.018;4.284;2023-04-03T02:01:53;5.10;99.90
18998;DHT22;9632;51.018;4.284;2023-04-03T02:04:19;5.10;99.90
18998;DHT22;9632;51.018;4.284;2023-04-03T02:06:44;5.20;99.90
18998;DHT22;9632;51.018;4.284;2023-04-03T02:09:10;5.20;99.90
18998;DHT22;9632;51.018;4.284;2023-04-03T02:11:36;5.20;99.90
18998;DHT22;9632;51.018;4.284;2023-04-03T02:14:02;5.30;99.90
18998;DHT22;9632;51.018;4.284;2023-04-03T02:16:27;5.30;99.90
18998;DHT22;9632;51.018;4.284;2023-04-03T02:18:54;5.20;99.90
18998;DHT22;9632;51.018;4.284;2023-04-03T02:21:20;5.20;99.90
18998;DHT22;9632;51.018;4.284;2023-04-03T02:23:46;5.20;99.90
18998;DHT22;9632;51.018;4.284;2023-04-03T02:26:13;5.20;99.90
18998;DHT22;9632;51.018;4.284;2023-04-03T02:28:39;5.10;99.90
18998;DHT22;9632;51.018;4.284;2023-04-03T02:31:06;5.10;99.90
18998;DHT22;9632;51.018;4.284;2023-04-03T02:33:33;5.10;99.90
18998;DHT22;9632;51.018;4.284;2023-04-03T02:35:58;5.10;99.90
18998;DHT22;9632;51.018;4.284;2023-04-03T02:38:25;5.10;99.90
18998;DHT22;9632;51.018;4.284;2023-04-03T02:40:51;5.10;99.90
18998;DHT22;9632;51.018;4.284;2023-04-03T02:43:17;5.10;99.90
18998;DHT22;9632;51.018;4.284;2023-04-03T02:45:43;5.10;99.90
18998;DHT22;9632;51.018;4.284;2023-04-03T02:48:09;5.20;99.90
18998;DHT22;9632;51.018;4.284;2023-04-03T02:50:35;5.10;99.90
18998;DHT22;9632;51.018;4.284;2023-04-03T02:53:00;5.10;99.90
18998;DHT22;9632;51.018;4.284;2023-04-03T02:55:26;5.10;99.90
18998;DHT22;9632;51.018;4.284;2023-04-03T02:57:52;5.10;99.90
18998;DHT22;9632;51.018;4.284;2023-04-03T03:00:17;5.10;99.90
18998;DHT22;9632;51.018;4.284;2023-04-03T03:02:43;5.10;99.90
18998;DHT22;9632;51.018;4.284;2023-04-03T03:05:09;5.00;99.90
18998;DHT22;9632;51.018;4.284;2023-04-03T03:07:34;5.00;99.90
18998;DHT22;9632;51.018;4.284;2023-04-03T03:10:00;5.00;99.90
18998;DHT22;9632;51.018;4.284;2023-04-03T03:12:26;4.90;99.90
18998;DHT22;9632;51.018;4.284;2023-04-03T03:14:52;5.00;99.90
18998;DHT22;9632;51.018;4.284;2023-04-03T03:17:17;5.00;99.90
18998;DHT22;9632;51.018;4.284;2023-04-03T03:19:43;5.00;99.90
18998;DHT22;9632;51.018;4.284;2023-04-03T03:22:09;4.90;99.90
18998;DHT22;9632;51.018;4.284;2023-04-03T03:24:35;4.80;99.90
18998;DHT22;9632;51.018;4.284;2023-04-03T03:27:00;4.80;99.90
18998;DHT22;9632;51.018;4.284;2023-04-03T03:29:26;4.80;99.90
18998;DHT22;9632;51.018;4.284;2023-04-03T03:31:52;4.80;99.90
18998;DHT22;9632;51.018;4.284;2023-04-03T03:34:17;4.70;99.90
18998;DHT22;9632;51.018;4.284;2023-04-03T03:36:43;4.80;99.90
18998;DHT22;9632;51.018;4.284;2023-04-03T03:39:09;4.80;99.90
18998;DHT22;9632;51.018;4.284;2023-04-03T03:41:35;4.70;99.90
18998;DHT22;9632;51.018;4.284;2023-04-03T03:44:01;4.80;99.90
18998;DHT22;9632;51.018;4.284;2023-04-03T03:46:27;4.70;99.90
18998;DHT22;9632;51.018;4.284;2023-04-03T03:48:52;4.80;99.90
18998;DHT22;9632;51.018;4.284;2023-04-03T03:51:18;4.80;99.90
18998;DHT22;9632;51.018;4.284;2023-04-03T03:53:43;4.80;99.90
18998;DHT22;9632;51.018;4.284;2023-04-03T03:56:09;4.70;99.90
18998;DHT22;9632;51.018;4.284;2023-04-03T03:58:35;4.70;99.90
18998;DHT22;9632;51.018;4.284;2023-04-03T04:01:05;4.60;99.90
18998;DHT22;9632;51.018;4.284;2023-04-03T04:03:31;4.60;99.90
18998;DHT22;9632;51.018;4.284;2023-04-03T04:05:56;4.60;99.90
18998;DHT22;9632;51.018;4.284;2023-04-03T04:08:23;4.70;99.90
18998;DHT22;9632;51.018;4.284;2023-04-03T04:10:49;4.60;99.90
18998;DHT22;9632;51.018;4.284;2023-04-03T04:13:16;4.60;99.90
18998;DHT22;9632;51.018;4.284;2023-04-03T04:15:43;4.60;99.90
18998;DHT22;9632;51.018;4.284;2023-04-03T04:18:09;4.60;99.90
18998;DHT22;9632;51.018;4.284;2023-04-03T04:20:34;4.60;99.90
18998;DHT22;9632;51.018;4.284;2023-04-03T04:23:00;4.60;99.90
18998;DHT22;9632;51.018;4.284;2023-04-03T04:25:25;4.60;99.90
18998;DHT22;9632;51.018;4.284;2023-04-03T04:27:51;4.50;99.90
18998;DHT22;9632;51.018;4.284;2023-04-03T04:30:17;4.50;99.90
18998;DHT22;9632;51.018;4.284;2023-04-03T04:32:43;4.50;99.90
18998;DHT22;9632;51.018;4.284;2023-04-03T04:35:08;4.50;99.90
18998;DHT22;9632;51.018;4.284;2023-04-03T04:37:35;4.50;99.90
18998;DHT22;9632;51.018;4.284;2023-04-03T04:40:00;4.40;99.90
18998;DHT22;9632;51.018;4.284;2023-04-03T04:42:26;4.40;99.90
18998;DHT22;9632;51.018;4.284;2023-04-03T04:44:51;4.40;99.90
18998;DHT22;9632;51.018;4.284;2023-04-03T04:47:17;4.40;99.90
18998;DHT22;9632;51.018;4.284;2023-04-03T04:49:43;4.40;99.90
18998;DHT22;9632;51.018;4.284;2023-04-03T04:52:08;4.40;99.90
18998;DHT22;9632;51.018;4.284;2023-04-03T04:54:34;4.40;99.90
18998;DHT22;9632;51.018;4.284;2023-04-03T04:57:00;4.30;99.90
18998;DHT22;9632;51.018;4.284;2023-04-03T04:59:26;4.30;99.90
18998;DHT22;9632;51.018;4.284;2023-04-03T05:01:51;4.30;99.90
18998;DHT22;9632;51.018;4.284;2023-04-03T05:04:17;4.20;99.90
18998;DHT22;9632;51.018;4.284;2023-04-03T05:06:43;4.20;99.90
18998;DHT22;9632;51.018;4.284;2023-04-03T05:09:08;4.20;99.90
18998;DHT22;9632;51.018;4.284;2023-04-03T05:11:35;4.20;99.90
18998;DHT22;9632;51.018;4.284;2023-04-03T05:14:01;4.20;99.90
18998;DHT22;9632;51.018;4.284;2023-04-03T05:16:27;4.20;99.90
18998;DHT22;9632;51.018;4.284;2023-04-03T05:18:52;4.10;99.90
18998;DHT22;9632;51.018;4.284;2023-04-03T05:21:18;4.10;99.90
18998;DHT22;9632;51.018;4.284;2023-04-03T05:23:44;4.10;99.90
18998;DHT22;9632;51.018;4.284;2023-04-03T05:26:09;4.10;99.90
18998;DHT22;9632;51.018;4.284;2023-04-03T05:28:36;4.10;99.90
18998;DHT22;9632;51.018;4.284;2023-04-03T05:31:02;4.10;99.90
18998;DHT22;9632;51.018;4.284;2023-04-03T05:33:27;4.10;99.90
18998;DHT22;9632;51.018;4.284;2023-04-03T05:35:54;4.10;99.90
18998;DHT22;9632;51.018;4.284;2023-04-03T05:38:20;4.10;99.90
18998;DHT22;9632;51.018;4.284;2023-04-03T05:40:46;4.10;99.90
18998;DHT22;9632;51.018;4.284;2023-04-03T05:43:12;4.00;99.90
18998;DHT22;9632;51.018;4.284;2023-04-03T05:45:38;4.10;99.90
18998;DHT22;9632;51.018;4.284;2023-04-03T05:48:03;4.10;99.90
18998;DHT22;9632;51.018;4.284;2023-04-03T05:50:29;4.10;99.90
18998;DHT22;9632;51.018;4.284;2023-04-03T05:52:57;4.10;99.90
18998;DHT22;9632;51.018;4.284;2023-04-03T05:55:23;4.10;99.90
18998;DHT22;9632;51.018;4.284;2023-04-03T05:57:49;4.20;99.90
18998;DHT22;9632;51.018;4.284;2023-04-03T06:00:15;4.20;99.90
18998;DHT22;9632;51.018;4.284;2023-04-03T06:02:42;4.30;99.90
18998;DHT22;9632;51.018;4.284;2023-04-03T06:05:09;4.40;99.90
18998;DHT22;9632;51.018;4.284;2023-04-03T06:07:37;4.40;99.90
18998;DHT22;9632;51.018;4.284;2023-04-03T06:10:03;4.50;99.90
18998;DHT22;9632;51.018;4.284;2023-04-03T06:12:28;4.60;99.90
18998;DHT22;9632;51.018;4.284;2023-04-03T06:14:55;4.70;99.90
18998;DHT22;9632;51.018;4.284;2023-04-03T06:17:21;4.80;99.90
18998;DHT22;9632;51.018;4.284;2023-04-03T06:19:47;4.80;99.90
18998;DHT22;9632;51.018;4.284;2023-04-03T06:22:13;5.00;99.90
18998;DHT22;9632;51.018;4.284;2023-04-03T06:24:38;5.10;99.90
18998;DHT22;9632;51.018;4.284;2023-04-03T06:27:04;5.30;99.90
18998;DHT22;9632;51.018;4.284;2023-04-03T06:29:30;5.50;99.90
18998;DHT22;9632;51.018;4.284;2023-04-03T06:31:56;5.70;99.90
18998;DHT22;9632;51.018;4.284;2023-04-03T06:34:22;5.90;99.90
18998;DHT22;9632;51.018;4.284;2023-04-03T06:36:48;6.20;99.90
18998;DHT22;9632;51.018;4.284;2023-04-03T06:39:19;6.40;99.90
18998;DHT22;9632;51.018;4.284;2023-04-03T06:41:46;6.70;99.90
18998;DHT22;9632;51.018;4.284;2023-04-03T06:44:12;6.90;99.90
18998;DHT22;9632;51.018;4.284;2023-04-03T06:46:40;7.10;99.90
18998;DHT22;9632;51.018;4.284;2023-04-03T06:49:06;7.30;99.90
18998;DHT22;9632;51.018;4.284;2023-04-03T06:51:35;7.50;99.90
18998;DHT22;9632;51.018;4.284;2023-04-03T06:54:02;7.60;99.90
18998;DHT22;9632;51.018;4.284;2023-04-03T06:56:28;7.70;99.90
18998;DHT22;9632;51.018;4.284;2023-04-03T06:58:55;7.80;99.90
18998;DHT22;9632;51.018;4.284;2023-04-03T07:01:24;7.90;99.90
18998;DHT22;9632;51.018;4.284;2023-04-03T07:03:51;8.00;99.90
18998;DHT22;9632;51.018;4.284;2023-04-03T07:06:18;8.00;99.90
18998;DHT22;9632;51.018;4.284;2023-04-03T07:08:44;8.10;99.90
18998;DHT22;9632;51.018;4.284;2023-04-03T07:11:12;8.20;99.90
18998;DHT22;9632;51.018;4.284;2023-04-03T07:13:38;8.20;99.90
18998;DHT22;9632;51.018;4.284;2023-04-03T07:16:05;8.20;99.90
18998;DHT22;9632;51.018;4.284;2023-04-03T07:18:32;8.20;99.90
18998;DHT22;9632;51.018;4.284;2023-04-03T07:20:58;8.30;99.90
18998;DHT22;9632;51.018;4.284;2023-04-03T07:23:24;8.30;99.90
18998;DHT22;9632;51.018;4.284;2023-04-03T07:25:51;8.30;99.90
18998;DHT22;9632;51.018;4.284;2023-04-03T07:28:18;8.40;99.90
18998;DHT22;9632;51.018;4.284;2023-04-03T07:30:46;8.30;99.90
18998;DHT22;9632;51.018;4.284;2023-04-03T07:33:13;8.30;99.90
18998;DHT22;9632;51.018;4.284;2023-04-03T07:35:41;8.20;99.90
18998;DHT22;9632;51.018;4.284;2023-04-03T07:38:07;8.20;99.90
18998;DHT22;9632;51.018;4.284;2023-04-03T07:40:33;8.20;99.90
18998;DHT22;9632;51.018;4.284;2023-04-03T07:42:58;8.10;99.90
18998;DHT22;9632;51.018;4.284;2023-04-03T07:45:25;8.10;99.90
18998;DHT22;9632;51.018;4.284;2023-04-03T07:47:51;8.10;99.90
18998;DHT22;9632;51.018;4.284;2023-04-03T07:50:17;8.00;99.90
18998;DHT22;9632;51.018;4.284;2023-04-03T07:52:43;8.00;99.90
18998;DHT22;9632;51.018;4.284;2023-04-03T07:55:09;8.10;99.90
18998;DHT22;9632;51.018;4.284;2023-04-03T07:57:35;8.10;99.90
18998;DHT22;9632;51.018;4.284;2023-04-03T08:00:03;8.20;99.90
18998;DHT22;9632;51.018;4.284;2023-04-03T08:02:30;8.30;99.90
18998;DHT22;9632;51.018;4.284;2023-04-03T08:04:57;8.40;99.90
18998;DHT22;9632;51.018;4.284;2023-04-03T08:07:23;8.60;99.90
18998;DHT22;9632;51.018;4.284;2023-04-03T08:09:48;8.70;99.90
18998;DHT22;9632;51.018;4.284;2023-04-03T08:12:14;8.80;99.90
18998;DHT22;9632;51.018;4.284;2023-04-03T08:14:40;8.80;99.90
18998;DHT22;9632;51.018;4.284;2023-04-03T08:17:06;8.80;99.90
18998;DHT22;9632;51.018;4.284;2023-04-03T08:19:35;8.80;99.90
18998;DHT22;9632;51.018;4.284;2023-04-03T08:22:01;8.80;99.90
18998;DHT22;9632;51.018;4.284;2023-04-03T08:24:28;8.90;99.90
18998;DHT22;9632;51.018;4.284;2023-04-03T08:26:54;8.90;99.90
18998;DHT22;9632;51.018;4.284;2023-04-03T08:29:20;9.00;99.90
18998;DHT22;9632;51.018;4.284;2023-04-03T08:31:47;9.10;99.90
18998;DHT22;9632;51.018;4.284;2023-04-03T08:34:14;9.10;99.90
18998;DHT22;9632;51.018;4.284;2023-04-03T08:36:39;9.20;99.90
18998;DHT22;9632;51.018;4.284;2023-04-03T08:39:05;9.30;99.90
18998;DHT22;9632;51.018;4.284;2023-04-03T08:41:35;9.40;99.90
18998;DHT22;9632;51.018;4.284;2023-04-03T08:47:37;9.40;99.90
18998;DHT22;9632;51.018;4.284;2023-04-03T08:49:57;9.30;99.90
18998;DHT22;9632;51.018;4.284;2023-04-03T08:55:04;9.40;99.90
18998;DHT22;9632;51.018;4.284;2023-04-03T08:57:36;9.60;99.90
18998;DHT22;9632;51.018;4.284;2023-04-03T09:02:46;9.60;99.90
18998;DHT22;9632;51.018;4.284;2023-04-03T09:05:18;9.50;99.90
18998;DHT22;9632;51.018;4.284;2023-04-03T09:07:56;9.40;99.90
18998;DHT22;9632;51.018;4.284;2023-04-03T09:10:28;9.60;99.90
18998;DHT22;9632;51.018;4.284;2023-04-03T09:13:04;9.60;99.90
18998;DHT22;9632;51.018;4.284;2023-04-03T09:15:33;9.50;99.90
18998;DHT22;9632;51.018;4.284;2023-04-03T09:18:03;9.60;99.90
18998;DHT22;9632;51.018;4.284;2023-04-03T09:20:42;9.60;99.90
18998;DHT22;9632;51.018;4.284;2023-04-03T09:23:54;9.60;99.90
18998;DHT22;9632;51.018;4.284;2023-04-03T09:26:36;9.70;99.90
18998;DHT22;9632;51.018;4.284;2023-04-03T09:29:06;9.80;99.90
18998;DHT22;9632;51.018;4.284;2023-04-03T09:31:42;10.00;99.90
18998;DHT22;9632;51.018;4.284;2023-04-03T09:34:36;10.10;99.90
18998;DHT22;9632;51.018;4.284;2023-04-03T09:37:03;10.10;99.90
18998;DHT22;9632;51.018;4.284;2023-04-03T09:39:33;10.10;99.90
18998;DHT22;9632;51.018;4.284;2023-04-03T09:42:24;10.10;99.90
18998;DHT22;9632;51.018;4.284;2023-04-03T09:44:59;10.20;99.90
18998;DHT22;9632;51.018;4.284;2023-04-03T09:47:26;10.20;99.90
18998;DHT22;9632;51.018;4.284;2023-04-03T09:50:19;10.00;99.90
18998;DHT22;9632;51.018;4.284;2023-04-03T09:52:48;10.10;99.90
18998;DHT22;9632;51.018;4.284;2023-04-03T09:55:22;10.10;99.90
18998;DHT22;9632;51.018;4.284;2023-04-03T09:57:53;10.10;99.90
18998;DHT22;9632;51.018;4.284;2023-04-03T10:00:26;10.10;99.90
18998;DHT22;9632;51.018;4.284;2023-04-03T10:02:55;10.10;99.90
18998;DHT22;9632;51.018;4.284;2023-04-03T10:05:47;10.10;99.90
18998;DHT22;9632;51.018;4.284;2023-04-03T10:10:40;10.20;99.90
18998;DHT22;9632;51.018;4.284;2023-04-03T10:13:18;10.20;99.90
18998;DHT22;9632;51.018;4.284;2023-04-03T10:15:50;10.20;99.90
18998;DHT22;9632;51.018;4.284;2023-04-03T10:18:44;10.40;99.90
18998;DHT22;9632;51.018;4.284;2023-04-03T10:27:08;10.40;99.90
18998;DHT22;9632;51.018;4.284;2023-04-03T10:29:51;10.50;99.90
18998;DHT22;9632;51.018;4.284;2023-04-03T10:35:16;10.60;99.90
18998;DHT22;9632;51.018;4.284;2023-04-03T10:46:46;10.60;99.90
18998;DHT22;9632;51.018;4.284;2023-04-03T10:49:29;10.70;99.90
18998;DHT22;9632;51.018;4.284;2023-04-03T10:52:00;10.80;99.90
18998;DHT22;9632;51.018;4.284;2023-04-03T10:57:29;11.00;99.90
18998;DHT22;9632;51.018;4.284;2023-04-03T11:00:01;11.20;99.90
18998;DHT22;9632;51.018;4.284;2023-04-03T11:02:35;11.30;99.90
18998;DHT22;9632;51.018;4.284;2023-04-03T11:05:53;11.30;99.90
18998;DHT22;9632;51.018;4.284;2023-04-03T11:07:53;11.30;99.90
18998;DHT22;9632;51.018;4.284;2023-04-03T11:10:35;11.20;99.90
18998;DHT22;9632;51.018;4.284;2023-04-03T11:15:32;11.10;99.90
18998;DHT22;9632;51.018;4.284;2023-04-03T11:18:06;11.10;99.90
18998;DHT22;9632;51.018;4.284;2023-04-03T11:20:35;11.10;99.90
18998;DHT22;9632;51.018;4.284;2023-04-03T11:23:24;11.10;99.90
18998;DHT22;9632;51.018;4.284;2023-04-03T11:25:56;11.00;99.90
18998;DHT22;9632;51.018;4.284;2023-04-03T11:28:25;11.00;99.90
18998;DHT22;9632;51.018;4.284;2023-04-03T11:31:11;11.00;99.90
18998;DHT22;9632;51.018;4.284;2023-04-03T11:34:05;11.00;99.90
18998;DHT22;9632;51.018;4.284;2023-04-03T11:36:42;11.00;99.90
18998;DHT22;9632;51.018;4.284;2023-04-03T11:41:50;10.90;99.90
18998;DHT22;9632;51.018;4.284;2023-04-03T11:44:35;11.00;99.90
18998;DHT22;9632;51.018;4.284;2023-04-03T11:47:06;11.00;99.90
18998;DHT22;9632;51.018;4.284;2023-04-03T12:14:03;10.90;98.50
18998;DHT22;9632;51.018;4.284;2023-04-03T12:19:34;11.00;99.80
18998;DHT22;9632;51.018;4.284;2023-04-03T12:24:31;11.00;97.90
18998;DHT22;9632;51.018;4.284;2023-04-03T12:29:27;11.00;99.00
18998;DHT22;9632;51.018;4.284;2023-04-03T12:32:17;11.10;95.10
18998;DHT22;9632;51.018;4.284;2023-04-03T12:51:19;11.30;93.70
18998;DHT22;9632;51.018;4.284;2023-04-03T12:53:46;11.20;94.10
18998;DHT22;9632;51.018;4.284;2023-04-03T12:58:49;11.20;95.40
18998;DHT22;9632;51.018;4.284;2023-04-03T13:01:17;11.20;93.30
18998;DHT22;9632;51.018;4.284;2023-04-03T13:03:56;11.20;93.10
18998;DHT22;9632;51.018;4.284;2023-04-03T13:06:28;11.30;93.70
18998;DHT22;9632;51.018;4.284;2023-04-03T13:08:58;11.40;94.90
18998;DHT22;9632;51.018;4.284;2023-04-03T13:11:34;11.30;92.30
18998;DHT22;9632;51.018;4.284;2023-04-03T13:14:04;11.40;93.20
18998;DHT22;9632;51.018;4.284;2023-04-03T13:16:33;11.30;92.40
18998;DHT22;9632;51.018;4.284;2023-04-03T13:18:59;11.40;91.40
18998;DHT22;9632;51.018;4.284;2023-04-03T13:21:30;11.30;91.70
18998;DHT22;9632;51.018;4.284;2023-04-03T13:23:59;11.30;91.80
18998;DHT22;9632;51.018;4.284;2023-04-03T13:26:31;11.30;93.70
18998;DHT22;9632;51.018;4.284;2023-04-03T13:29:07;11.30;91.10
18998;DHT22;9632;51.018;4.284;2023-04-03T13:31:44;11.40;92.10
18998;DHT22;9632;51.018;4.284;2023-04-03T13:34:11;11.40;93.20
18998;DHT22;9632;51.018;4.284;2023-04-03T13:36:41;11.40;92.90
18998;DHT22;9632;51.018;4.284;2023-04-03T13:39:33;11.50;94.10
18998;DHT22;9632;51.018;4.284;2023-04-03T13:42:02;11.50;91.60
18998;DHT22;9632;51.018;4.284;2023-04-03T13:44:39;11.40;92.10
18998;DHT22;9632;51.018;4.284;2023-04-03T13:47:15;11.40;93.50
18998;DHT22;9632;51.018;4.284;2023-04-03T13:49:44;11.40;91.30
18998;DHT22;9632;51.018;4.284;2023-04-03T13:55:14;11.40;92.20
18998;DHT22;9632;51.018;4.284;2023-04-03T13:57:53;11.40;92.70
18998;DHT22;9632;51.018;4.284;2023-04-03T14:00:50;11.50;92.70
18998;DHT22;9632;51.018;4.284;2023-04-03T14:03:22;11.50;93.30
18998;DHT22;9632;51.018;4.284;2023-04-03T14:05:48;11.60;94.50
18998;DHT22;9632;51.018;4.284;2023-04-03T14:08:13;11.50;93.30
18998;DHT22;9632;51.018;4.284;2023-04-03T14:10:39;11.50;91.80
18998;DHT22;9632;51.018;4.284;2023-04-03T14:13:06;11.50;93.60
18998;DHT22;9632;51.018;4.284;2023-04-03T14:15:32;11.40;93.10
18998;DHT22;9632;51.018;4.284;2023-04-03T14:17:58;11.40;92.60
18998;DHT22;9632;51.018;4.284;2023-04-03T14:20:26;11.40;91.40
18998;DHT22;9632;51.018;4.284;2023-04-03T14:22:52;11.40;92.50
18998;DHT22;9632;51.018;4.284;2023-04-03T14:25:19;11.50;92.00
18998;DHT22;9632;51.018;4.284;2023-04-03T14:27:48;11.50;92.80
18998;DHT22;9632;51.018;4.284;2023-04-03T14:30:26;11.50;92.30
18998;DHT22;9632;51.018;4.284;2023-04-03T14:32:52;11.40;92.90
18998;DHT22;9632;51.018;4.284;2023-04-03T14:35:19;11.40;92.00
18998;DHT22;9632;51.018;4.284;2023-04-03T14:37:46;11.30;92.20
18998;DHT22;9632;51.018;4.284;2023-04-03T14:40:19;11.30;92.00
18998;DHT22;9632;51.018;4.284;2023-04-03T14:42:45;11.30;92.50
18998;DHT22;9632;51.018;4.284;2023-04-03T14:45:12;11.30;91.40
18998;DHT22;9632;51.018;4.284;2023-04-03T14:47:46;11.40;91.30
18998;DHT22;9632;51.018;4.284;2023-04-03T14:50:19;11.40;92.50
18998;DHT22;9632;51.018;4.284;2023-04-03T14:52:50;11.30;91.20
18998;DHT22;9632;51.018;4.284;2023-04-03T14:55:18;11.30;91.00
18998;DHT22;9632;51.018;4.284;2023-04-03T14:57:44;11.30;91.70
18998;DHT22;9632;51.018;4.284;2023-04-03T15:00:17;11.30;89.40
18998;DHT22;9632;51.018;4.284;2023-04-03T15:02:43;11.30;89.10
18998;DHT22;9632;51.018;4.284;2023-04-03T15:05:10;11.30;89.80
18998;DHT22;9632;51.018;4.284;2023-04-03T15:07:39;11.30;89.30
18998;DHT22;9632;51.018;4.284;2023-04-03T15:10:21;11.40;91.10
18998;DHT22;9632;51.018;4.284;2023-04-03T15:12:48;11.40;90.50
18998;DHT22;9632;51.018;4.284;2023-04-03T15:15:15;11.50;90.50
18998;DHT22;9632;51.018;4.284;2023-04-03T15:17:42;11.50;90.20
18998;DHT22;9632;51.018;4.284;2023-04-03T15:20:20;11.50;90.40
18998;DHT22;9632;51.018;4.284;2023-04-03T15:22:46;11.50;91.30
18998;DHT22;9632;51.018;4.284;2023-04-03T15:25:12;11.50;87.30
18998;DHT22;9632;51.018;4.284;2023-04-03T15:27:37;11.50;86.10
18998;DHT22;9632;51.018;4.284;2023-04-03T15:30:05;11.50;86.00
18998;DHT22;9632;51.018;4.284;2023-04-03T15:32:31;11.50;89.50
18998;DHT22;9632;51.018;4.284;2023-04-03T15:34:57;11.50;88.40
18998;DHT22;9632;51.018;4.284;2023-04-03T15:37:23;11.50;87.70
18998;DHT22;9632;51.018;4.284;2023-04-03T15:39:49;11.50;88.20
18998;DHT22;9632;51.018;4.284;2023-04-03T15:42:14;11.50;87.60
18998;DHT22;9632;51.018;4.284;2023-04-03T15:44:40;11.40;87.90
18998;DHT22;9632;51.018;4.284;2023-04-03T15:47:06;11.40;89.20
18998;DHT22;9632;51.018;4.284;2023-04-03T15:49:36;11.40;86.50
18998;DHT22;9632;51.018;4.284;2023-04-03T15:52:02;11.40;85.50
18998;DHT22;9632;51.018;4.284;2023-04-03T15:54:28;11.40;85.00
18998;DHT22;9632;51.018;4.284;2023-04-03T15:56:55;11.30;85.30
18998;DHT22;9632;51.018;4.284;2023-04-03T15:59:21;11.30;86.40
18998;DHT22;9632;51.018;4.284;2023-04-03T16:01:48;11.30;86.90
18998;DHT22;9632;51.018;4.284;2023-04-03T16:04:14;11.20;85.50
18998;DHT22;9632;51.018;4.284;2023-04-03T16:06:40;11.30;89.10
18998;DHT22;9632;51.018;4.284;2023-04-03T16:09:06;11.20;87.60
18998;DHT22;9632;51.018;4.284;2023-04-03T16:11:32;11.20;85.80
18998;DHT22;9632;51.018;4.284;2023-04-03T16:13:57;11.30;85.10
18998;DHT22;9632;51.018;4.284;2023-04-03T16:16:24;11.30;84.60
18998;DHT22;9632;51.018;4.284;2023-04-03T16:18:51;11.20;85.50
18998;DHT22;9632;51.018;4.284;2023-04-03T16:21:18;11.10;84.80
18998;DHT22;9632;51.018;4.284;2023-04-03T16:23:44;11.10;84.60
18998;DHT22;9632;51.018;4.284;2023-04-03T16:26:10;11.10;85.60
18998;DHT22;9632;51.018;4.284;2023-04-03T16:28:36;11.10;86.00
18998;DHT22;9632;51.018;4.284;2023-04-03T16:31:02;11.10;85.70
18998;DHT22;9632;51.018;4.284;2023-04-03T16:33:28;11.10;84.60
18998;DHT22;9632;51.018;4.284;2023-04-03T16:35:54;11.10;87.00
18998;DHT22;9632;51.018;4.284;2023-04-03T16:38:20;11.10;86.50
18998;DHT22;9632;51.018;4.284;2023-04-03T16:40:48;11.10;86.60
18998;DHT22;9632;51.018;4.284;2023-04-03T16:43:15;11.10;86.80
18998;DHT22;9632;51.018;4.284;2023-04-03T16:45:40;11.10;87.10
18998;DHT22;9632;51.018;4.284;2023-04-03T16:48:06;11.00;87.30
18998;DHT22;9632;51.018;4.284;2023-04-03T16:50:32;11.00;89.80
18998;DHT22;9632;51.018;4.284;2023-04-03T16:52:58;11.00;90.00
18998;DHT22;9632;51.018;4.284;2023-04-03T16:55:23;11.00;90.10
18998;DHT22;9632;51.018;4.284;2023-04-03T16:57:49;11.00;90.50
18998;DHT22;9632;51.018;4.284;2023-04-03T17:00:15;10.90;90.60
18998;DHT22;9632;51.018;4.284;2023-04-03T17:02:41;10.90;90.50
18998;DHT22;9632;51.018;4.284;2023-04-03T17:05:07;10.90;90.50
18998;DHT22;9632;51.018;4.284;2023-04-03T17:07:33;10.90;90.20
18998;DHT22;9632;51.018;4.284;2023-04-03T17:09:59;10.80;90.60
18998;DHT22;9632;51.018;4.284;2023-04-03T17:12:25;10.70;91.10
18998;DHT22;9632;51.018;4.284;2023-04-03T17:14:51;10.60;91.80
18998;DHT22;9632;51.018;4.284;2023-04-03T17:17:20;10.60;92.20
18998;DHT22;9632;51.018;4.284;2023-04-03T17:19:46;10.60;92.20
18998;DHT22;9632;51.018;4.284;2023-04-03T17:22:12;10.60;92.30
18998;DHT22;9632;51.018;4.284;2023-04-03T17:24:38;10.60;92.50
18998;DHT22;9632;51.018;4.284;2023-04-03T17:27:04;10.60;92.70
18998;DHT22;9632;51.018;4.284;2023-04-03T17:29:29;10.50;92.50
18998;DHT22;9632;51.018;4.284;2023-04-03T17:31:55;10.60;93.00
18998;DHT22;9632;51.018;4.284;2023-04-03T17:34:21;10.60;93.40
18998;DHT22;9632;51.018;4.284;2023-04-03T17:36:47;10.50;93.00
18998;DHT22;9632;51.018;4.284;2023-04-03T17:39:13;10.40;93.00
18998;DHT22;9632;51.018;4.284;2023-04-03T17:41:39;10.40;92.60